sensor_id;sensor_type;location;lat;lon;timestamp;temperature;humidity
11107;DHT22;5607;48.302;14.294;2022-08-04T00:00:43;24.00;1.00
11107;DHT22;5607;48.302;14.294;2022-08-04T00:03:44;24.00;1.00
11107;DHT22;5607;48.302;14.294;2022-08-04T00:12:15;23.80;1.00
11107;DHT22;5607;48.302;14.294;2022-08-04T00:15:02;23.70;1.00
11107;DHT22;5607;48.302;14.294;2022-08-04T00:18:24;23.70;1.00
11107;DHT22;5607;48.302;14.294;2022-08-04T00:21:03;23.60;1.00
11107;DHT22;5607;48.302;14.294;2022-08-04T00:23:50;23.60;1.00
11107;DHT22;5607;48.302;14.294;2022-08-04T00:26:36;23.60;1.00
11107;DHT22;5607;48.302;14.294;2022-08-04T00:29:23;23.50;1.00
11107;DHT22;5607;48.302;14.294;2022-08-04T00:32:11;23.50;1.00
11107;DHT22;5607;48.302;14.294;2022-08-04T00:34:58;23.40;1.00
11107;DHT22;5607;48.302;14.294;2022-08-04T00:37:47;23.40;1.00
11107;DHT22;5607;48.302;14.294;2022-08-04T01:16:24;22.90;1.00
11107;DHT22;5607;48.302;14.294;2022-08-04T01:31:02;22.80;1.00
11107;DHT22;5607;48.302;14.294;2022-08-04T01:33:53;22.80;1.00
11107;DHT22;5607;48.302;14.294;2022-08-04T01:37:02;22.70;1.00
11107;DHT22;5607;48.302;14.294;2022-08-04T01:39:50;22.70;1.00
11107;DHT22;5607;48.302;14.294;2022-08-04T01:42:44;22.70;1.00
11107;DHT22;5607;48.302;14.294;2022-08-04T01:45:30;22.70;1.00
11107;DHT22;5607;48.302;14.294;2022-08-04T01:48:17;22.60;1.00
11107;DHT22;5607;48.302;14.294;2022-08-04T01:51:08;22.70;1.00
11107;DHT22;5607;48.302;14.294;2022-08-04T01:53:54;22.70;1.00
11107;DHT22;5607;48.302;14.294;2022-08-04T01:56:41;22.70;1.00
11107;DHT22;5607;48.302;14.294;2022-08-04T01:59:28;22.70;1.00
11107;DHT22;5607;48.302;14.294;2022-08-04T02:02:15;22.60;1.00
11107;DHT22;5607;48.302;14.294;2022-08-04T02:05:02;22.60;1.00
11107;DHT22;5607;48.302;14.294;2022-08-04T02:10:42;22.50;1.00
11107;DHT22;5607;48.302;14.294;2022-08-04T02:19:20;22.60;1.00
11107;DHT22;5607;48.302;14.294;2022-08-04T02:22:11;22.50;1.00
11107;DHT22;5607;48.302;14.294;2022-08-04T02:25:05;22.50;1.00
11107;DHT22;5607;48.302;14.294;2022-08-04T02:33:55;22.40;1.00
11107;DHT22;5607;48.302;14.294;2022-08-04T02:36:43;22.40;1.00
11107;DHT22;5607;48.302;14.294;2022-08-04T02:39:32;22.30;1.00
11107;DHT22;5607;48.302;14.294;2022-08-04T02:42:18;22.20;1.00
11107;DHT22;5607;48.302;14.294;2022-08-04T02:45:05;22.20;1.00
11107;DHT22;5607;48.302;14.294;2022-08-04T02:47:52;22.20;1.00
11107;DHT22;5607;48.302;14.294;2022-08-04T02:50:38;22.20;1.00
11107;DHT22;5607;48.302;14.294;2022-08-04T02:53:26;22.10;1.00
11107;DHT22;5607;48.302;14.294;2022-08-04T02:56:13;22.00;1.00
11107;DHT22;5607;48.302;14.294;2022-08-04T02:59:01;22.10;1.00
11107;DHT22;5607;48.302;14.294;2022-08-04T03:01:48;22.00;1.00
11107;DHT22;5607;48.302;14.294;2022-08-04T04:07:31;21.50;1.00
11107;DHT22;5607;48.302;14.294;2022-08-04T04:19:00;21.40;1.00
11107;DHT22;5607;48.302;14.294;2022-08-04T04:21:57;21.40;1.00
11107;DHT22;5607;48.302;14.294;2022-08-04T04:31:04;21.30;1.00
11107;DHT22;5607;48.302;14.294;2022-08-04T04:34:11;21.30;1.00
11107;DHT22;5607;48.302;14.294;2022-08-04T04:40:17;21.50;1.00
11107;DHT22;5607;48.302;14.294;2022-08-04T04:46:12;21.60;1.00
11107;DHT22;5607;48.302;14.294;2022-08-04T04:51:47;21.60;1.00
11107;DHT22;5607;48.302;14.294;2022-08-04T04:54:44;21.50;1.00
11107;DHT22;5607;48.302;14.294;2022-08-04T04:57:36;21.50;1.00
11107;DHT22;5607;48.302;14.294;2022-08-04T05:00:24;21.60;1.00
11107;DHT22;5607;48.302;14.294;2022-08-04T05:08:50;21.50;1.00
11107;DHT22;5607;48.302;14.294;2022-08-04T05:11:50;21.50;1.00
11107;DHT22;5607;48.302;14.294;2022-08-04T05:14:45;21.50;1.00
11107;DHT22;5607;48.302;14.294;2022-08-04T05:23:14;21.60;1.00
11107;DHT22;5607;48.302;14.294;2022-08-04T05:26:05;21.60;1.00
11107;DHT22;5607;48.302;14.294;2022-08-04T05:28:53;21.70;1.00
11107;DHT22;5607;48.302;14.294;2022-08-04T05:31:42;21.70;1.00
11107;DHT22;5607;48.302;14.294;2022-08-04T05:34:30;21.60;1.00
11107;DHT22;5607;48.302;14.294;2022-08-04T05:37:18;21.70;1.00
11107;DHT22;5607;48.302;14.294;2022-08-04T05:40:06;21.70;1.00
11107;DHT22;5607;48.302;14.294;2022-08-04T05:42:52;21.70;1.00
11107;DHT22;5607;48.302;14.294;2022-08-04T05:45:40;21.70;1.00
11107;DHT22;5607;48.302;14.294;2022-08-04T05:48:27;21.80;1.00
11107;DHT22;5607;48.302;14.294;2022-08-04T05:51:14;21.90;1.00
11107;DHT22;5607;48.302;14.294;2022-08-04T05:54:01;22.00;1.00
11107;DHT22;5607;48.302;14.294;2022-08-04T05:56:48;22.00;1.00
11107;DHT22;5607;48.302;14.294;2022-08-04T05:59:39;22.10;1.00
11107;DHT22;5607;48.302;14.294;2022-08-04T06:02:31;22.30;1.00
11107;DHT22;5607;48.302;14.294;2022-08-04T06:05:18;22.40;1.00
11107;DHT22;5607;48.302;14.294;2022-08-04T06:08:04;22.50;1.00
11107;DHT22;5607;48.302;14.294;2022-08-04T06:10:51;22.60;1.00
11107;DHT22;5607;48.302;14.294;2022-08-04T06:13:42;22.70;1.00
11107;DHT22;5607;48.302;14.294;2022-08-04T06:16:40;22.90;1.00
11107;DHT22;5607;48.302;14.294;2022-08-04T06:19:27;23.00;1.00
11107;DHT22;5607;48.302;14.294;2022-08-04T06:22:14;23.10;1.00
11107;DHT22;5607;48.302;14.294;2022-08-04T06:25:02;23.20;1.00
11107;DHT22;5607;48.302;14.294;2022-08-04T06:27:50;23.40;1.00
11107;DHT22;5607;48.302;14.294;2022-08-04T06:30:36;23.50;1.00
11107;DHT22;5607;48.302;14.294;2022-08-04T06:33:24;23.70;1.00
11107;DHT22;5607;48.302;14.294;2022-08-04T06:36:18;23.80;1.00
11107;DHT22;5607;48.302;14.294;2022-08-04T06:39:05;24.00;1.00
11107;DHT22;5607;48.302;14.294;2022-08-04T06:41:52;24.30;1.00
11107;DHT22;5607;48.302;14.294;2022-08-04T06:44:39;24.50;1.00
11107;DHT22;5607;48.302;14.294;2022-08-04T06:47:25;24.70;1.00
11107;DHT22;5607;48.302;14.294;2022-08-04T06:50:12;24.90;1.00
11107;DHT22;5607;48.302;14.294;2022-08-04T06:56:23;25.20;1.00
11107;DHT22;5607;48.302;14.294;2022-08-04T06:59:10;25.40;1.00
11107;DHT22;5607;48.302;14.294;2022-08-04T07:01:57;25.50;1.00
11107;DHT22;5607;48.302;14.294;2022-08-04T07:04:43;25.60;1.00
11107;DHT22;5607;48.302;14.294;2022-08-04T07:07:31;25.60;1.00
11107;DHT22;5607;48.302;14.294;2022-08-04T07:10:18;25.60;1.00
11107;DHT22;5607;48.302;14.294;2022-08-04T07:13:04;25.70;1.00
11107;DHT22;5607;48.302;14.294;2022-08-04T07:15:52;25.90;1.00
11107;DHT22;5607;48.302;14.294;2022-08-04T07:18:40;26.20;1.00
11107;DHT22;5607;48.302;14.294;2022-08-04T07:21:26;26.30;1.00
11107;DHT22;5607;48.302;14.294;2022-08-04T07:24:14;26.40;1.00
11107;DHT22;5607;48.302;14.294;2022-08-04T07:27:01;26.50;1.00
11107;DHT22;5607;48.302;14.294;2022-08-04T07:29:48;26.70;1.00
11107;DHT22;5607;48.302;14.294;2022-08-04T07:32:34;26.90;1.00
11107;DHT22;5607;48.302;14.294;2022-08-04T07:35:22;27.00;1.00
11107;DHT22;5607;48.302;14.294;2022-08-04T07:38:08;27.20;1.00
11107;DHT22;5607;48.302;14.294;2022-08-04T07:44:02;27.20;1.00
11107;DHT22;5607;48.302;14.294;2022-08-04T07:46:51;27.20;1.00
11107;DHT22;5607;48.302;14.294;2022-08-04T07:49:37;27.30;1.00
11107;DHT22;5607;48.302;14.294;2022-08-04T07:52:25;27.50;1.00
11107;DHT22;5607;48.302;14.294;2022-08-04T07:55:11;27.60;1.00
11107;DHT22;5607;48.302;14.294;2022-08-04T07:57:58;27.80;1.00
11107;DHT22;5607;48.302;14.294;2022-08-04T08:00:44;28.00;1.00
11107;DHT22;5607;48.302;14.294;2022-08-04T08:03:32;28.30;1.00
11107;DHT22;5607;48.302;14.294;2022-08-04T08:06:18;28.40;1.00
11107;DHT22;5607;48.302;14.294;2022-08-04T08:09:09;28.40;1.00
11107;DHT22;5607;48.302;14.294;2022-08-04T08:11:55;28.70;1.00
11107;DHT22;5607;48.302;14.294;2022-08-04T08:14:42;28.80;1.00
11107;DHT22;5607;48.302;14.294;2022-08-04T08:17:29;28.90;1.00
11107;DHT22;5607;48.302;14.294;2022-08-04T08:20:16;29.00;1.00
11107;DHT22;5607;48.302;14.294;2022-08-04T08:23:02;29.00;1.00
11107;DHT22;5607;48.302;14.294;2022-08-04T08:25:49;29.10;1.00
11107;DHT22;5607;48.302;14.294;2022-08-04T08:28:35;29.00;1.00
11107;DHT22;5607;48.302;14.294;2022-08-04T08:31:21;29.10;1.00
11107;DHT22;5607;48.302;14.294;2022-08-04T08:34:09;29.10;1.00
11107;DHT22;5607;48.302;14.294;2022-08-04T08:37:11;29.20;1.00
11107;DHT22;5607;48.302;14.294;2022-08-04T08:40:01;29.30;1.00
11107;DHT22;5607;48.302;14.294;2022-08-04T08:43:04;29.40;1.00
11107;DHT22;5607;48.302;14.294;2022-08-04T08:45:57;29.50;1.00
11107;DHT22;5607;48.302;14.294;2022-08-04T09:01:04;29.80;1.00
11107;DHT22;5607;48.302;14.294;2022-08-04T09:06:49;29.80;1.00
11107;DHT22;5607;48.302;14.294;2022-08-04T09:09:52;29.80;1.00
11107;DHT22;5607;48.302;14.294;2022-08-04T09:12:55;29.80;1.00
11107;DHT22;5607;48.302;14.294;2022-08-04T09:18:36;29.70;1.00
11107;DHT22;5607;48.302;14.294;2022-08-04T09:21:36;29.80;1.00
11107;DHT22;5607;48.302;14.294;2022-08-04T09:30:48;29.60;1.00
11107;DHT22;5607;48.302;14.294;2022-08-04T09:36:26;29.60;1.00
11107;DHT22;5607;48.302;14.294;2022-08-04T09:42:17;29.70;1.00
11107;DHT22;5607;48.302;14.294;2022-08-04T09:48:30;29.70;1.00
11107;DHT22;5607;48.302;14.294;2022-08-04T10:00:33;29.70;1.00
11107;DHT22;5607;48.302;14.294;2022-08-04T10:03:20;29.60;1.00
11107;DHT22;5607;48.302;14.294;2022-08-04T10:12:05;29.60;1.00
11107;DHT22;5607;48.302;14.294;2022-08-04T10:15:05;29.60;1.00
11107;DHT22;5607;48.302;14.294;2022-08-04T10:18:07;29.70;1.00
11107;DHT22;5607;48.302;14.294;2022-08-04T10:21:15;29.90;1.00
11107;DHT22;5607;48.302;14.294;2022-08-04T10:24:06;29.80;1.00
11107;DHT22;5607;48.302;14.294;2022-08-04T10:30:03;30.00;1.00
11107;DHT22;5607;48.302;14.294;2022-08-04T10:33:07;30.00;1.00
11107;DHT22;5607;48.302;14.294;2022-08-04T10:35:59;30.10;1.00
11107;DHT22;5607;48.302;14.294;2022-08-04T10:39:00;30.20;1.00
11107;DHT22;5607;48.302;14.294;2022-08-04T10:41:53;30.20;1.00
11107;DHT22;5607;48.302;14.294;2022-08-04T10:47:50;30.30;1.00
11107;DHT22;5607;48.302;14.294;2022-08-04T10:50:38;30.40;1.00
11107;DHT22;5607;48.302;14.294;2022-08-04T10:53:26;30.30;1.00
11107;DHT22;5607;48.302;14.294;2022-08-04T10:56:14;30.40;1.00
11107;DHT22;5607;48.302;14.294;2022-08-04T10:59:05;30.50;1.00
11107;DHT22;5607;48.302;14.294;2022-08-04T11:01:54;30.60;1.00
11107;DHT22;5607;48.302;14.294;2022-08-04T11:04:48;30.60;1.00
11107;DHT22;5607;48.302;14.294;2022-08-04T11:07:36;30.70;1.00
11107;DHT22;5607;48.302;14.294;2022-08-04T11:10:24;30.70;1.00
11107;DHT22;5607;48.302;14.294;2022-08-04T11:13:14;30.70;1.00
11107;DHT22;5607;48.302;14.294;2022-08-04T11:16:01;30.70;1.00
11107;DHT22;5607;48.302;14.294;2022-08-04T11:39:49;31.40;1.00
11107;DHT22;5607;48.302;14.294;2022-08-04T11:42:37;31.70;1.00
11107;DHT22;5607;48.302;14.294;2022-08-04T11:45:31;31.80;1.00
11107;DHT22;5607;48.302;14.294;2022-08-04T11:48:22;31.90;1.00
11107;DHT22;5607;48.302;14.294;2022-08-04T11:51:10;31.90;1.00
11107;DHT22;5607;48.302;14.294;2022-08-04T11:53:57;31.80;1.00
11107;DHT22;5607;48.302;14.294;2022-08-04T11:56:44;32.00;1.00
11107;DHT22;5607;48.302;14.294;2022-08-04T11:59:32;32.10;1.00
11107;DHT22;5607;48.302;14.294;2022-08-04T12:05:17;32.20;1.00
11107;DHT22;5607;48.302;14.294;2022-08-04T12:11:04;32.40;1.00
11107;DHT22;5607;48.302;14.294;2022-08-04T12:14:13;32.50;1.00
11107;DHT22;5607;48.302;14.294;2022-08-04T12:17:01;32.60;1.00
11107;DHT22;5607;48.302;14.294;2022-08-04T12:19:49;32.80;1.00
11107;DHT22;5607;48.302;14.294;2022-08-04T12:22:40;32.80;1.00
11107;DHT22;5607;48.302;14.294;2022-08-04T12:25:32;33.00;1.00
11107;DHT22;5607;48.302;14.294;2022-08-04T12:31:37;33.20;1.00
11107;DHT22;5607;48.302;14.294;2022-08-04T12:35:28;33.30;1.00
11107;DHT22;5607;48.302;14.294;2022-08-04T12:37:54;33.50;1.00
11107;DHT22;5607;48.302;14.294;2022-08-04T12:40:50;33.40;1.00
11107;DHT22;5607;48.302;14.294;2022-08-04T12:43:40;33.60;1.00
11107;DHT22;5607;48.302;14.294;2022-08-04T12:46:30;33.60;1.00
11107;DHT22;5607;48.302;14.294;2022-08-04T12:49:17;33.70;1.00
11107;DHT22;5607;48.302;14.294;2022-08-04T12:52:07;33.80;1.00
11107;DHT22;5607;48.302;14.294;2022-08-04T12:54:53;33.80;1.00
11107;DHT22;5607;48.302;14.294;2022-08-04T12:57:41;34.00;1.00
11107;DHT22;5607;48.302;14.294;2022-08-04T13:00:32;34.10;1.00
11107;DHT22;5607;48.302;14.294;2022-08-04T13:03:19;34.10;1.00
11107;DHT22;5607;48.302;14.294;2022-08-04T13:06:06;34.20;1.00
11107;DHT22;5607;48.302;14.294;2022-08-04T13:08:54;34.20;1.00
11107;DHT22;5607;48.302;14.294;2022-08-04T13:11:41;34.40;1.00
11107;DHT22;5607;48.302;14.294;2022-08-04T13:14:30;34.50;1.00
11107;DHT22;5607;48.302;14.294;2022-08-04T13:17:19;34.50;1.00
11107;DHT22;5607;48.302;14.294;2022-08-04T13:20:05;34.70;1.00
11107;DHT22;5607;48.302;14.294;2022-08-04T13:22:57;34.60;1.00
11107;DHT22;5607;48.302;14.294;2022-08-04T13:25:45;34.70;1.00
11107;DHT22;5607;48.302;14.294;2022-08-04T13:28:32;34.90;1.00
11107;DHT22;5607;48.302;14.294;2022-08-04T13:31:21;35.10;1.00
11107;DHT22;5607;48.302;14.294;2022-08-04T13:34:09;35.20;1.00
11107;DHT22;5607;48.302;14.294;2022-08-04T13:36:56;35.40;1.00
11107;DHT22;5607;48.302;14.294;2022-08-04T13:39:44;35.80;1.00
11107;DHT22;5607;48.302;14.294;2022-08-04T13:42:32;36.20;1.00
11107;DHT22;5607;48.302;14.294;2022-08-04T13:45:20;36.60;1.00
11107;DHT22;5607;48.302;14.294;2022-08-04T13:48:06;37.20;1.00
11107;DHT22;5607;48.302;14.294;2022-08-04T13:50:54;37.40;1.00
11107;DHT22;5607;48.302;14.294;2022-08-04T13:53:43;37.30;1.00
11107;DHT22;5607;48.302;14.294;2022-08-04T13:56:31;37.50;1.00
11107;DHT22;5607;48.302;14.294;2022-08-04T13:59:18;37.60;1.00
11107;DHT22;5607;48.302;14.294;2022-08-04T14:02:08;38.90;1.00
11107;DHT22;5607;48.302;14.294;2022-08-04T14:04:56;39.90;1.00
11107;DHT22;5607;48.302;14.294;2022-08-04T14:07:45;40.80;1.00
11107;DHT22;5607;48.302;14.294;2022-08-04T14:10:33;41.70;1.00
11107;DHT22;5607;48.302;14.294;2022-08-04T14:13:27;43.10;1.00
11107;DHT22;5607;48.302;14.294;2022-08-04T14:16:15;45.20;1.00
11107;DHT22;5607;48.302;14.294;2022-08-04T14:19:02;47.50;1.00
11107;DHT22;5607;48.302;14.294;2022-08-04T14:21:48;49.10;1.00
11107;DHT22;5607;48.302;14.294;2022-08-04T14:24:34;50.40;1.00
11107;DHT22;5607;48.302;14.294;2022-08-04T14:27:21;51.10;1.00
11107;DHT22;5607;48.302;14.294;2022-08-04T14:30:20;52.40;1.00
11107;DHT22;5607;48.302;14.294;2022-08-04T14:33:07;53.60;1.00
11107;DHT22;5607;48.302;14.294;2022-08-04T14:35:57;54.70;1.00
11107;DHT22;5607;48.302;14.294;2022-08-04T14:42:08;55.10;1.00
11107;DHT22;5607;48.302;14.294;2022-08-04T14:44:56;54.90;1.00
11107;DHT22;5607;48.302;14.294;2022-08-04T14:47:45;55.80;1.00
11107;DHT22;5607;48.302;14.294;2022-08-04T14:50:36;55.80;1.00
11107;DHT22;5607;48.302;14.294;2022-08-04T14:53:24;55.60;1.00
11107;DHT22;5607;48.302;14.294;2022-08-04T14:56:16;56.00;1.00
11107;DHT22;5607;48.302;14.294;2022-08-04T14:59:09;56.70;1.00
11107;DHT22;5607;48.302;14.294;2022-08-04T15:01:56;57.30;1.00
11107;DHT22;5607;48.302;14.294;2022-08-04T15:04:42;57.70;1.00
11107;DHT22;5607;48.302;14.294;2022-08-04T15:07:30;56.40;1.00
11107;DHT22;5607;48.302;14.294;2022-08-04T15:10:16;55.20;1.00
11107;DHT22;5607;48.302;14.294;2022-08-04T15:13:03;53.80;1.00
11107;DHT22;5607;48.302;14.294;2022-08-04T15:15:49;54.40;1.00
11107;DHT22;5607;48.302;14.294;2022-08-04T15:18:36;55.30;1.00
11107;DHT22;5607;48.302;14.294;2022-08-04T15:21:23;56.10;1.00
11107;DHT22;5607;48.302;14.294;2022-08-04T15:24:10;56.40;1.00
11107;DHT22;5607;48.302;14.294;2022-08-04T15:26:57;56.70;1.00
11107;DHT22;5607;48.302;14.294;2022-08-04T15:29:45;57.00;1.00
11107;DHT22;5607;48.302;14.294;2022-08-04T15:32:33;57.40;1.00
11107;DHT22;5607;48.302;14.294;2022-08-04T15:38:32;55.10;1.00
11107;DHT22;5607;48.302;14.294;2022-08-04T15:41:25;51.00;1.00
11107;DHT22;5607;48.302;14.294;2022-08-04T15:47:21;44.10;1.00
11107;DHT22;5607;48.302;14.294;2022-08-04T15:50:09;41.50;1.00
11107;DHT22;5607;48.302;14.294;2022-08-04T15:55:42;38.20;1.00
11107;DHT22;5607;48.302;14.294;2022-08-04T15:58:47;36.90;1.00
11107;DHT22;5607;48.302;14.294;2022-08-04T16:01:35;36.30;1.00
11107;DHT22;5607;48.302;14.294;2022-08-04T16:04:22;36.00;1.00
11107;DHT22;5607;48.302;14.294;2022-08-04T16:07:09;35.80;1.00
11107;DHT22;5607;48.302;14.294;2022-08-04T16:10:12;35.60;1.00
11107;DHT22;5607;48.302;14.294;2022-08-04T16:13:05;35.40;1.00
11107;DHT22;5607;48.302;14.294;2022-08-04T16:15:52;35.20;1.00
11107;DHT22;5607;48.302;14.294;2022-08-04T16:18:40;35.00;1.00
11107;DHT22;5607;48.302;14.294;2022-08-04T16:21:28;34.70;1.00
11107;DHT22;5607;48.302;14.294;2022-08-04T16:24:18;34.60;1.00
11107;DHT22;5607;48.302;14.294;2022-08-04T16:27:09;34.40;1.00
11107;DHT22;5607;48.302;14.294;2022-08-04T16:30:03;34.20;1.00
11107;DHT22;5607;48.302;14.294;2022-08-04T16:32:50;34.00;1.00
11107;DHT22;5607;48.302;14.294;2022-08-04T16:35:36;33.90;1.00
11107;DHT22;5607;48.302;14.294;2022-08-04T16:38:23;33.90;1.00
11107;DHT22;5607;48.302;14.294;2022-08-04T16:41:10;33.80;1.00
11107;DHT22;5607;48.302;14.294;2022-08-04T16:44:11;33.70;1.00
11107;DHT22;5607;48.302;14.294;2022-08-04T16:47:03;33.60;1.00
11107;DHT22;5607;48.302;14.294;2022-08-04T16:49:59;33.60;1.00
11107;DHT22;5607;48.302;14.294;2022-08-04T16:52:50;33.40;1.00
11107;DHT22;5607;48.302;14.294;2022-08-04T16:55:36;33.40;1.00
11107;DHT22;5607;48.302;14.294;2022-08-04T16:58:23;33.40;1.00
11107;DHT22;5607;48.302;14.294;2022-08-04T17:01:11;33.40;1.00
11107;DHT22;5607;48.302;14.294;2022-08-04T17:03:57;33.30;1.00
11107;DHT22;5607;48.302;14.294;2022-08-04T17:06:49;33.20;1.00
11107;DHT22;5607;48.302;14.294;2022-08-04T17:09:35;33.20;1.00
11107;DHT22;5607;48.302;14.294;2022-08-04T17:12:26;33.10;1.00
11107;DHT22;5607;48.302;14.294;2022-08-04T17:15:22;33.10;1.00
11107;DHT22;5607;48.302;14.294;2022-08-04T17:18:12;33.00;1.00
11107;DHT22;5607;48.302;14.294;2022-08-04T17:21:02;33.00;1.00
11107;DHT22;5607;48.302;14.294;2022-08-04T17:23:50;33.00;1.00
11107;DHT22;5607;48.302;14.294;2022-08-04T17:26:37;32.90;1.00
11107;DHT22;5607;48.302;14.294;2022-08-04T17:29:23;32.80;1.00
11107;DHT22;5607;48.302;14.294;2022-08-04T17:32:15;32.70;1.00
11107;DHT22;5607;48.302;14.294;2022-08-04T17:35:01;32.70;1.00
11107;DHT22;5607;48.302;14.294;2022-08-04T17:37:48;32.60;1.00
11107;DHT22;5607;48.302;14.294;2022-08-04T17:40:48;32.50;1.00
11107;DHT22;5607;48.302;14.294;2022-08-04T17:46:22;32.20;1.00
11107;DHT22;5607;48.302;14.294;2022-08-04T17:52:04;31.90;1.00
11107;DHT22;5607;48.302;14.294;2022-08-04T17:54:57;31.80;1.00
11107;DHT22;5607;48.302;14.294;2022-08-04T17:57:44;31.70;1.00
11107;DHT22;5607;48.302;14.294;2022-08-04T18:00:33;31.60;1.00
11107;DHT22;5607;48.302;14.294;2022-08-04T18:03:20;31.50;1.00
11107;DHT22;5607;48.302;14.294;2022-08-04T18:06:11;31.20;1.00
11107;DHT22;5607;48.302;14.294;2022-08-04T18:08:57;31.00;1.00
11107;DHT22;5607;48.302;14.294;2022-08-04T18:11:50;30.80;1.00
11107;DHT22;5607;48.302;14.294;2022-08-04T18:14:46;30.70;1.00
11107;DHT22;5607;48.302;14.294;2022-08-04T18:17:35;30.50;1.00
11107;DHT22;5607;48.302;14.294;2022-08-04T18:20:24;30.40;1.00
11107;DHT22;5607;48.302;14.294;2022-08-04T18:23:10;30.40;1.00
11107;DHT22;5607;48.302;14.294;2022-08-04T18:25:57;30.20;1.00
11107;DHT22;5607;48.302;14.294;2022-08-04T18:28:43;30.10;1.00
11107;DHT22;5607;48.302;14.294;2022-08-04T18:31:29;30.00;1.00
11107;DHT22;5607;48.302;14.294;2022-08-04T18:34:16;29.90;1.00
11107;DHT22;5607;48.302;14.294;2022-08-04T18:37:02;29.80;1.00
11107;DHT22;5607;48.302;14.294;2022-08-04T18:39:49;29.60;1.00
11107;DHT22;5607;48.302;14.294;2022-08-04T18:42:35;29.50;1.00
11107;DHT22;5607;48.302;14.294;2022-08-04T18:45:21;29.40;1.00
11107;DHT22;5607;48.302;14.294;2022-08-04T18:51:17;29.10;1.00
11107;DHT22;5607;48.302;14.294;2022-08-04T18:54:06;29.00;1.00
11107;DHT22;5607;48.302;14.294;2022-08-04T18:56:53;28.90;1.00
11107;DHT22;5607;48.302;14.294;2022-08-04T18:59:39;28.80;1.00
11107;DHT22;5607;48.302;14.294;2022-08-04T19:02:27;28.70;1.00
11107;DHT22;5607;48.302;14.294;2022-08-04T19:05:13;28.60;1.00
11107;DHT22;5607;48.302;14.294;2022-08-04T19:07:59;28.40;1.00
11107;DHT22;5607;48.302;14.294;2022-08-04T19:10:46;28.40;1.00
11107;DHT22;5607;48.302;14.294;2022-08-04T19:13:32;28.30;1.00
11107;DHT22;5607;48.302;14.294;2022-08-04T19:16:18;28.30;1.00
11107;DHT22;5607;48.302;14.294;2022-08-04T19:19:05;28.10;1.00
11107;DHT22;5607;48.302;14.294;2022-08-04T19:21:51;28.00;1.00
11107;DHT22;5607;48.302;14.294;2022-08-04T19:24:38;27.90;1.00
11107;DHT22;5607;48.302;14.294;2022-08-04T19:27:24;27.80;1.00
11107;DHT22;5607;48.302;14.294;2022-08-04T19:30:12;27.80;1.00
11107;DHT22;5607;48.302;14.294;2022-08-04T19:32:58;27.80;1.00
11107;DHT22;5607;48.302;14.294;2022-08-04T19:35:44;27.70;1.00
11107;DHT22;5607;48.302;14.294;2022-08-04T19:38:31;27.60;1.00
11107;DHT22;5607;48.302;14.294;2022-08-04T19:41:17;27.60;1.00
11107;DHT22;5607;48.302;14.294;2022-08-04T19:44:03;27.40;1.00
11107;DHT22;5607;48.302;14.294;2022-08-04T19:46:50;27.30;1.00
11107;DHT22;5607;48.302;14.294;2022-08-04T19:49:36;27.30;1.00
11107;DHT22;5607;48.302;14.294;2022-08-04T19:52:22;27.20;1.00
11107;DHT22;5607;48.302;14.294;2022-08-04T19:55:09;27.20;1.00
11107;DHT22;5607;48.302;14.294;2022-08-04T19:57:55;27.20;1.00
11107;DHT22;5607;48.302;14.294;2022-08-04T20:00:45;27.10;1.00
11107;DHT22;5607;48.302;14.294;2022-08-04T20:03:32;27.00;1.00
11107;DHT22;5607;48.302;14.294;2022-08-04T20:06:18;27.00;1.00
11107;DHT22;5607;48.302;14.294;2022-08-04T20:09:04;26.90;1.00
11107;DHT22;5607;48.302;14.294;2022-08-04T20:11:51;26.90;1.00
11107;DHT22;5607;48.302;14.294;2022-08-04T20:14:37;26.90;1.00
11107;DHT22;5607;48.302;14.294;2022-08-04T20:17:24;26.80;1.00
11107;DHT22;5607;48.302;14.294;2022-08-04T20:20:10;26.70;1.00
11107;DHT22;5607;48.302;14.294;2022-08-04T20:22:56;26.60;1.00
11107;DHT22;5607;48.302;14.294;2022-08-04T20:25:43;26.50;1.00
11107;DHT22;5607;48.302;14.294;2022-08-04T20:28:29;26.40;1.00
11107;DHT22;5607;48.302;14.294;2022-08-04T20:31:15;26.40;1.00
11107;DHT22;5607;48.302;14.294;2022-08-04T20:34:01;26.40;1.00
11107;DHT22;5607;48.302;14.294;2022-08-04T20:36:48;26.40;1.00
11107;DHT22;5607;48.302;14.294;2022-08-04T20:39:36;26.40;1.00
11107;DHT22;5607;48.302;14.294;2022-08-04T20:42:26;26.40;1.00
11107;DHT22;5607;48.302;14.294;2022-08-04T20:45:13;26.40;1.00
11107;DHT22;5607;48.302;14.294;2022-08-04T20:48:00;26.40;1.00
11107;DHT22;5607;48.302;14.294;2022-08-04T20:50:46;26.30;1.00
11107;DHT22;5607;48.302;14.294;2022-08-04T20:53:32;26.30;1.00
11107;DHT22;5607;48.302;14.294;2022-08-04T20:56:18;26.30;1.00
11107;DHT22;5607;48.302;14.294;2022-08-04T20:59:05;26.30;1.00
11107;DHT22;5607;48.302;14.294;2022-08-04T21:01:51;26.30;1.00
11107;DHT22;5607;48.302;14.294;2022-08-04T21:04:38;26.30;1.00
11107;DHT22;5607;48.302;14.294;2022-08-04T21:07:28;26.20;1.00
11107;DHT22;5607;48.302;14.294;2022-08-04T21:10:15;26.10;1.00
11107;DHT22;5607;48.302;14.294;2022-08-04T21:13:02;26.10;1.00
11107;DHT22;5607;48.302;14.294;2022-08-04T21:15:48;26.00;1.00
11107;DHT22;5607;48.302;14.294;2022-08-04T21:18:35;26.00;1.00
11107;DHT22;5607;48.302;14.294;2022-08-04T21:21:21;26.00;1.00
11107;DHT22;5607;48.302;14.294;2022-08-04T21:24:08;26.00;1.00
11107;DHT22;5607;48.302;14.294;2022-08-04T21:26:54;25.90;1.00
11107;DHT22;5607;48.302;14.294;2022-08-04T21:29:42;25.90;1.00
11107;DHT22;5607;48.302;14.294;2022-08-04T21:32:29;25.80;1.00
11107;DHT22;5607;48.302;14.294;2022-08-04T21:35:15;25.80;1.00
11107;DHT22;5607;48.302;14.294;2022-08-04T21:38:02;25.70;1.00
11107;DHT22;5607;48.302;14.294;2022-08-04T21:40:52;25.70;1.00
11107;DHT22;5607;48.302;14.294;2022-08-04T21:43:39;25.70;1.00
11107;DHT22;5607;48.302;14.294;2022-08-04T21:46:25;25.70;1.00
11107;DHT22;5607;48.302;14.294;2022-08-04T21:49:12;25.60;1.00
11107;DHT22;5607;48.302;14.294;2022-08-04T21:51:58;25.60;1.00
11107;DHT22;5607;48.302;14.294;2022-08-04T21:54:45;25.50;1.00
11107;DHT22;5607;48.302;14.294;2022-08-04T21:57:31;25.50;1.00
11107;DHT22;5607;48.302;14.294;2022-08-04T22:00:17;25.50;1.00
11107;DHT22;5607;48.302;14.294;2022-08-04T22:03:03;25.30;1.00
11107;DHT22;5607;48.302;14.294;2022-08-04T22:05:51;25.20;1.00
11107;DHT22;5607;48.302;14.294;2022-08-04T22:08:38;25.20;1.00
11107;DHT22;5607;48.302;14.294;2022-08-04T22:11:32;25.20;1.00
11107;DHT22;5607;48.302;14.294;2022-08-04T22:14:19;25.20;1.00
11107;DHT22;5607;48.302;14.294;2022-08-04T22:17:05;25.10;1.00
11107;DHT22;5607;48.302;14.294;2022-08-04T22:19:51;25.10;1.00
11107;DHT22;5607;48.302;14.294;2022-08-04T22:22:38;25.10;1.00
11107;DHT22;5607;48.302;14.294;2022-08-04T22:25:24;25.10;1.00
11107;DHT22;5607;48.302;14.294;2022-08-04T22:28:11;25.10;1.00
11107;DHT22;5607;48.302;14.294;2022-08-04T22:30:57;25.20;1.00
11107;DHT22;5607;48.302;14.294;2022-08-04T22:33:43;25.10;1.00
11107;DHT22;5607;48.302;14.294;2022-08-04T22:36:29;25.10;1.00
11107;DHT22;5607;48.302;14.294;2022-08-04T22:39:16;25.10;1.00
11107;DHT22;5607;48.302;14.294;2022-08-04T22:42:02;25.00;1.00